Time;durP1;ratioP1;P1;durP2;ratioP2;P2;SDS_P1;SDS_P2;PMS_P1;PMS_P2;Temp;Humidity;BMP_temperature;BMP_pressure;BME280_temperature;BME280_humidity;BME280_pressure;Samples;Min_cycle;Max_cycle;Signal;HPM_P1;HPM_P2
2022/05/01 00:01:24;;;;;;;5.47;4.60;;;;;;;13.49;58.04;100643.13;4454443;32;20100;-68
2022/05/01 00:03:51;;;;;;;5.20;4.10;;;;;;;13.62;57.86;100637.56;4454451;32;20115;-68
2022/05/01 00:06:19;;;;;;;8.00;4.25;;;;;;;13.59;55.77;100642.03;4454325;32;20088;-68
2022/05/01 00:08:47;;;;;;;5.40;3.78;;;;;;;13.60;56.91;100633.19;4454425;32;20120;-68
2022/05/01 00:11:14;;;;;;;6.75;4.68;;;;;;;13.62;56.47;100636.69;4454261;32;20177;-68
2022/05/01 00:13:44;;;;;;;6.25;4.35;;;;;;;13.62;54.74;100642.00;4454302;32;20108;-68
2022/05/01 00:16:12;;;;;;;8.07;4.07;;;;;;;13.64;55.19;100640.19;4454245;32;20174;-68
2022/05/01 00:18:41;;;;;;;8.18;4.70;;;;;;;13.68;56.84;100641.88;4454439;32;20251;-68
2022/05/01 00:21:08;;;;;;;8.75;5.12;;;;;;;13.63;55.10;100638.44;4454353;32;20509;-68
2022/05/01 00:23:36;;;;;;;6.70;4.75;;;;;;;13.61;54.43;100635.81;4454062;32;20131;-68
2022/05/01 00:26:06;;;;;;;7.72;3.80;;;;;;;13.60;54.55;100639.38;4454175;32;20160;-68
2022/05/01 00:28:35;;;;;;;4.72;3.90;;;;;;;13.62;54.38;100642.00;4454227;32;20119;-68
2022/05/01 00:31:06;;;;;;;6.90;4.30;;;;;;;13.60;56.28;100633.19;4454132;32;20092;-68
2022/05/01 00:36:27;;;;;;;;;;;;;;;13.41;55.36;100635.34;4454671;32;20098;-68
2022/05/01 00:39:01;;;;;;;6.10;4.37;;;;;;;13.38;56.92;100638.91;4454138;32;19984;-68
2022/05/01 00:41:30;;;;;;;6.78;3.85;;;;;;;13.35;56.86;100638.09;4454108;32;20168;-68
2022/05/01 00:44:01;;;;;;;5.32;4.45;;;;;;;13.33;59.28;100635.50;4454083;32;20137;-68
2022/05/01 00:46:28;;;;;;;5.97;4.00;;;;;;;13.32;56.71;100633.75;4452776;32;20101;-68
2022/05/01 00:48:55;;;;;;;7.10;4.70;;;;;;;13.36;55.93;100635.44;4453834;32;20496;-68
2022/05/01 00:51:24;;;;;;;6.18;3.72;;;;;;;13.39;55.41;100635.38;4454079;32;20105;-68
2022/05/01 00:53:52;;;;;;;6.53;4.00;;;;;;;13.48;55.92;100634.31;4453953;32;20084;-68
2022/05/01 00:56:20;;;;;;;3.35;3.05;;;;;;;13.42;57.81;100629.12;4453894;32;20123;-68
2022/05/01 00:58:48;;;;;;;5.37;3.62;;;;;;;13.39;56.19;100637.13;4454012;32;20158;-68
2022/05/01 01:01:15;;;;;;;8.40;3.53;;;;;;;13.39;58.07;100640.69;4453798;32;20173;-68
2022/05/01 01:03:44;;;;;;;4.12;3.65;;;;;;;13.34;58.05;100637.22;4453729;32;20135;-68
2022/05/01 01:06:12;;;;;;;6.65;4.25;;;;;;;13.32;56.95;100633.75;4453804;32;20097;-68
2022/05/01 01:08:39;;;;;;;4.70;3.47;;;;;;;13.36;59.24;100639.88;4453659;32;20499;-68
2022/05/01 01:11:06;;;;;;;3.50;3.20;;;;;;;13.24;60.03;100633.00;4453698;32;20096;-68
2022/05/01 01:13:34;;;;;;;3.55;3.20;;;;;;;13.30;59.97;100634.69;4453807;32;20115;-68
2022/05/01 01:16:08;;;;;;;6.75;3.92;;;;;;;13.18;58.99;100635.75;4453379;32;20097;-68
2022/05/01 01:18:39;;;;;;;5.28;4.03;;;;;;;13.13;60.20;100632.31;4453586;32;20351;-68
2022/05/01 01:21:10;;;;;;;4.70;3.47;;;;;;;13.08;60.72;100636.84;4453477;32;20482;-68
2022/05/01 01:23:40;;;;;;;4.35;3.70;;;;;;;13.07;59.50;100638.59;4453457;32;20076;-68
2022/05/01 01:26:08;;;;;;;6.30;3.65;;;;;;;13.17;58.59;100636.63;4453412;32;20267;-68
2022/05/01 01:28:40;;;;;;;6.53;3.70;;;;;;;13.15;58.67;100641.97;4453512;32;20101;-68
2022/05/01 01:34:00;;;;;;;4.82;3.33;;;;;;;13.26;59.18;100636.50;4453392;32;20072;-68
2022/05/01 01:36:28;;;;;;;3.87;3.40;;;;;;;13.18;57.01;100634.88;4453323;32;20496;-68
2022/05/01 01:38:55;;;;;;;6.12;4.00;;;;;;;13.14;56.79;100639.34;4453018;32;20105;-68
2022/05/01 01:41:26;;;;;;;4.35;3.40;;;;;;;13.16;58.37;100634.91;4453081;32;20430;-68
2022/05/01 01:43:54;;;;;;;4.95;3.70;;;;;;;13.12;59.61;100641.16;4453369;32;20101;-68
2022/05/01 01:46:22;;;;;;;8.85;4.40;;;;;;;13.12;57.96;100641.16;4453200;32;20088;-68
2022/05/01 01:48:51;;;;;;;5.10;3.67;;;;;;;13.16;56.05;100637.56;4453094;32;20499;-68
2022/05/01 01:51:19;;;;;;;4.62;3.87;;;;;;;13.22;55.79;100636.59;4453008;32;20184;-68
2022/05/01 01:53:46;;;;;;;8.23;3.80;;;;;;;13.39;54.74;100635.38;4453022;32;20076;-68
2022/05/01 01:56:13;;;;;;;4.00;3.60;;;;;;;13.45;55.10;100641.44;4453196;32;20401;-68
2022/05/01 01:58:41;;;;;;;3.87;3.42;;;;;;;13.46;54.21;100638.75;4454384;32;20109;-68
2022/05/01 02:01:10;;;;;;;4.55;3.50;;;;;;;13.43;55.59;100635.31;4455124;32;20453;-68
2022/05/01 02:03:38;;;;;;;6.05;3.75;;;;;;;13.36;55.88;100632.78;4455089;32;20155;-68
2022/05/01 02:06:06;;;;;;;6.47;3.92;;;;;;;13.34;58.13;100633.72;4455358;32;20164;-68
2022/05/01 02:08:34;;;;;;;6.62;3.37;;;;;;;13.30;55.53;100632.91;4455274;32;20459;-68
2022/05/01 02:11:03;;;;;;;4.82;4.40;;;;;;;13.44;54.69;100635.28;4455276;32;20621;-68
2022/05/01 02:13:30;;;;;;;8.93;4.28;;;;;;;13.51;55.65;100622.81;4455127;32;20155;-68
2022/05/01 02:15:58;;;;;;;4.40;3.85;;;;;;;13.43;54.63;100619.41;4455277;32;20424;-68
2022/05/01 02:18:25;;;;;;;5.85;3.95;;;;;;;13.35;54.66;100625.72;4455216;32;20141;-68
2022/05/01 02:23:38;;;;;;;8.23;4.12;;;;;;;13.36;54.61;100618.69;4455145;32;20072;-68
2022/05/01 02:26:05;;;;;;;4.45;3.60;;;;;;;13.34;54.84;100628.44;4455060;32;20686;-68
2022/05/01 02:28:33;;;;;;;4.85;4.30;;;;;;;13.34;56.54;100615.19;4454867;32;20159;-68
2022/05/01 02:31:00;;;;;;;6.20;4.00;;;;;;;13.32;55.37;100635.50;4454999;32;20097;-68
2022/05/01 02:33:28;;;;;;;5.68;4.03;;;;;;;13.31;55.40;100629.34;4455092;32;20628;-68
2022/05/01 02:35:55;;;;;;;4.87;4.10;;;;;;;13.25;56.70;100637.44;4455004;32;20127;-68
2022/05/01 02:38:22;;;;;;;8.57;4.53;;;;;;;13.20;57.40;100627.78;4454872;32;20420;-68
2022/05/01 02:40:49;;;;;;;6.62;4.37;;;;;;;13.15;57.59;100628.75;4454872;32;20168;-68
2022/05/01 02:43:16;;;;;;;5.55;4.10;;;;;;;13.09;58.23;100631.50;4455194;32;20384;-68
2022/05/01 02:45:44;;;;;;;8.07;4.43;;;;;;;12.99;58.89;100626.41;4454824;32;20449;-68
2022/05/01 02:48:11;;;;;;;5.57;4.62;;;;;;;12.97;59.57;100637.03;4454955;32;20092;-68
2022/05/01 02:50:39;;;;;;;6.12;4.30;;;;;;;12.93;59.07;100635.31;4455011;32;20101;-68
2022/05/01 02:53:06;;;;;;;5.57;4.37;;;;;;;12.96;58.49;100631.75;4454693;32;20105;-68
2022/05/01 02:55:33;;;;;;;6.60;4.35;;;;;;;13.02;58.47;100629.00;4454967;32;20169;-68
2022/05/01 02:58:02;;;;;;;6.87;4.50;;;;;;;13.02;57.89;100629.00;4454910;32;20108;-68
2022/05/01 03:00:29;;;;;;;5.32;4.30;;;;;;;13.08;56.49;100631.53;4454730;32;20558;-68
2022/05/01 03:02:56;;;;;;;6.95;4.65;;;;;;;13.09;57.71;100623.56;4454743;32;20448;-68
2022/05/01 03:05:26;;;;;;;4.57;4.10;;;;;;;13.07;57.20;100620.09;4454727;32;20186;-68
2022/05/01 03:07:55;;;;;;;6.97;4.95;;;;;;;13.05;59.13;100631.59;4454867;32;20146;-68
2022/05/01 03:10:23;;;;;;;5.55;4.90;;;;;;;12.99;58.76;100629.03;4453850;32;20180;-68
2022/05/01 03:12:51;;;;;;;5.40;4.65;;;;;;;12.92;59.07;100623.84;4454855;32;20141;-68
2022/05/01 03:15:18;;;;;;;6.68;4.57;;;;;;;12.92;59.96;100636.22;4454735;32;20127;-68
2022/05/01 03:23:17;;;;;;;8.18;5.05;;;;;;;12.91;60.82;100639.75;4454730;32;20145;-68
2022/05/01 03:25:44;;;;;;;7.37;4.78;;;;;;;12.80;60.45;100633.78;4454869;32;20116;-68
2022/05/01 03:28:11;;;;;;;6.05;4.78;;;;;;;12.76;60.17;100638.25;4454584;32;20128;-68
2022/05/01 03:30:39;;;;;;;9.65;5.07;;;;;;;12.76;59.71;100646.19;4454572;32;20553;-68
2022/05/01 03:33:07;;;;;;;7.87;4.12;;;;;;;12.80;59.68;100645.25;4454961;32;20163;-68
2022/05/01 03:35:38;;;;;;;11.93;4.37;;;;;;;12.81;60.85;100640.81;4454588;32;20164;-68
2022/05/01 03:38:08;;;;;;;8.10;4.35;;;;;;;12.74;60.36;100655.03;4454579;32;20440;-68
2022/05/01 03:40:36;;;;;;;4.60;4.00;;;;;;;12.72;61.29;100640.97;4454772;32;20535;-68
2022/05/01 03:43:04;;;;;;;10.43;4.75;;;;;;;12.74;61.30;100647.09;4454533;32;20479;-68
2022/05/01 03:45:32;;;;;;;8.88;4.50;;;;;;;12.76;60.87;100650.63;4454452;32;20149;-68
2022/05/01 03:47:59;;;;;;;11.48;4.70;;;;;;;12.81;60.05;100639.03;4454545;32;20888;-68
2022/05/01 03:50:26;;;;;;;6.28;4.45;;;;;;;12.85;59.69;100642.50;4454428;32;20092;-68
2022/05/01 03:52:54;;;;;;;5.93;5.00;;;;;;;12.85;60.11;100646.03;4454631;32;20076;-68
2022/05/01 03:55:22;;;;;;;6.65;4.12;;;;;;;12.91;59.97;100647.69;4454516;32;20097;-68
2022/05/01 03:57:49;;;;;;;14.75;4.87;;;;;;;12.90;59.47;100654.75;4454695;32;20160;-68
2022/05/01 04:00:20;;;;;;;7.18;4.50;;;;;;;12.89;59.32;100660.06;4454404;32;20180;-68
2022/05/01 04:02:47;;;;;;;5.00;3.90;;;;;;;12.88;60.66;100659.19;4454592;32;20151;-68
2022/05/01 04:05:15;;;;;;;7.93;3.90;;;;;;;12.86;60.16;100661.00;4454411;32;20085;-68
2022/05/01 04:07:42;;;;;;;6.57;4.60;;;;;;;12.86;59.76;100666.31;4454325;32;20101;-68
2022/05/01 04:10:12;;;;;;;10.82;6.07;;;;;;;12.76;63.83;100672.62;4454327;32;20463;-68
2022/05/01 04:12:42;;;;;;;5.37;4.70;;;;;;;12.63;64.20;100665.78;4454288;32;20096;-68
2022/05/01 04:15:11;;;;;;;9.27;4.50;;;;;;;12.58;63.45;100678.19;4454456;32;20097;-68
2022/05/01 04:17:39;;;;;;;6.05;4.90;;;;;;;12.61;64.40;100672.84;4454073;32;20116;-68
2022/05/01 04:20:16;;;;;;;7.03;4.53;;;;;;;12.61;65.31;100676.38;4453944;32;20799;-68
2022/05/01 04:22:48;;;;;;;6.37;4.90;;;;;;;12.63;64.10;100665.78;4454443;32;20096;-68
2022/05/01 04:25:29;;;;;;;7.53;4.78;;;;;;;12.74;63.00;100666.47;4454254;32;20111;-68
2022/05/01 04:27:58;;;;;;;13.20;5.18;;;;;;;12.89;63.33;100676.81;4454257;32;20089;-68
2022/05/01 04:30:26;;;;;;;7.28;4.62;;;;;;;12.98;62.01;100675.78;4454144;32;20500;-68
2022/05/01 04:33:00;;;;;;;10.90;4.62;;;;;;;13.09;61.64;100673.81;4454085;32;20095;-68
2022/05/01 04:35:37;;;;;;;10.10;4.95;;;;;;;13.20;62.07;100680.72;4454274;32;20148;-68
2022/05/01 04:38:07;;;;;;;5.93;5.12;;;;;;;13.32;61.18;100677.84;4454036;32;20150;-68
2022/05/01 04:40:38;;;;;;;7.05;4.82;;;;;;;13.38;61.04;100681.25;4454137;32;20164;-68
2022/05/01 04:43:19;;;;;;;11.40;5.10;;;;;;;13.49;60.23;100675.75;4454198;32;20130;-68
2022/05/01 04:45:49;;;;;;;7.93;4.78;;;;;;;13.54;60.18;100678.34;4454087;32;20187;-68
2022/05/01 04:48:17;;;;;;;9.20;4.82;;;;;;;13.58;60.42;100680.03;4453885;32;20101;-68
2022/05/01 04:50:46;;;;;;;6.90;5.07;;;;;;;13.67;59.50;100687.78;4454275;32;20433;-68
2022/05/01 04:53:15;;;;;;;10.57;4.22;;;;;;;13.75;58.81;100682.34;4439497;32;20092;-68
2022/05/01 04:55:44;;;;;;;8.73;5.35;;;;;;;13.77;60.08;100686.69;4453842;32;20148;-68
2022/05/01 04:58:14;;;;;;;8.23;5.43;;;;;;;13.85;59.59;100687.44;4453953;32;20453;-68
2022/05/01 05:00:43;;;;;;;7.12;5.32;;;;;;;13.93;58.50;100686.41;4453986;32;20182;-68
2022/05/01 05:03:11;;;;;;;8.00;5.05;;;;;;;14.05;58.31;100683.47;4453738;32;20106;-68
2022/05/01 05:05:38;;;;;;;13.07;8.38;;;;;;;14.28;57.32;100685.63;4453687;32;20097;-68
2022/05/01 05:10:53;;;;;;;12.50;8.35;;;;;;;14.45;56.81;100694.09;4453812;32;20090;-68
2022/05/01 05:13:25;;;;;;;10.85;6.15;;;;;;;14.64;56.61;100693.69;4453718;32;20152;-68
2022/05/01 05:15:53;;;;;;;7.85;5.53;;;;;;;14.70;56.52;100694.41;4453450;32;20161;-68
2022/05/01 05:18:21;;;;;;;6.85;5.05;;;;;;;14.73;56.47;100696.97;4453529;32;20089;-68
2022/05/01 05:20:48;;;;;;;18.23;5.22;;;;;;;14.74;56.77;100695.22;4453429;32;20097;-68
2022/05/01 05:23:17;;;;;;;8.48;5.30;;;;;;;14.80;56.52;100698.56;4453374;32;20615;-68
2022/05/01 05:25:44;;;;;;;8.00;5.32;;;;;;;14.92;56.52;100709.81;4453425;32;20089;-68
2022/05/01 05:28:12;;;;;;;13.48;4.72;;;;;;;14.95;56.29;100707.09;4453377;32;20127;-68
2022/05/01 05:30:39;;;;;;;9.15;4.93;;;;;;;14.99;55.71;100701.66;4453306;32;20116;-68
2022/05/01 05:33:06;;;;;;;10.85;5.40;;;;;;;15.14;56.99;100710.12;4454145;32;20211;-68
2022/05/01 05:35:34;;;;;;;15.68;5.95;;;;;;;15.26;55.51;100701.84;4455446;32;20526;-68
2022/05/01 05:38:01;;;;;;;6.87;4.87;;;;;;;15.33;54.60;100699.91;4455249;32;20097;-68
2022/05/01 05:40:28;;;;;;;6.47;4.93;;;;;;;15.28;54.54;100698.25;4455237;32;20139;-68
2022/05/01 05:42:55;;;;;;;8.25;5.30;;;;;;;15.46;53.98;100701.31;4455111;32;20501;-68
2022/05/01 05:45:23;;;;;;;6.07;4.60;;;;;;;15.54;54.41;100701.97;4455364;32;20088;-68
2022/05/01 05:47:51;;;;;;;10.55;5.43;;;;;;;15.63;53.74;100707.06;4455413;32;20089;-68
2022/05/01 05:50:18;;;;;;;10.60;5.18;;;;;;;15.82;53.76;100701.25;4455321;32;20101;-68
2022/05/01 05:52:45;;;;;;;6.03;5.40;;;;;;;15.92;53.53;100711.56;4455473;32;20080;-68
2022/05/01 05:55:13;;;;;;;11.85;4.87;;;;;;;15.94;53.52;100711.53;4455159;32;20114;-68
2022/05/01 05:57:40;;;;;;;6.37;4.80;;;;;;;16.03;53.69;100711.25;4455146;32;20109;-68
2022/05/01 06:00:08;;;;;;;6.53;4.97;;;;;;;16.18;52.66;100723.22;4455070;32;20134;-68
2022/05/01 06:02:38;;;;;;;5.30;4.80;;;;;;;16.28;52.28;100723.84;4455168;32;20102;-68
2022/05/01 06:05:06;;;;;;;11.40;4.70;;;;;;;16.32;52.10;100726.34;4455158;32;20583;-68
2022/05/01 06:07:33;;;;;;;5.82;4.78;;;;;;;16.46;52.39;100718.81;4455135;32;20553;-68
2022/05/01 06:10:00;;;;;;;8.10;5.00;;;;;;;16.48;52.61;100722.31;4455167;32;20130;-68
2022/05/01 06:12:28;;;;;;;16.02;5.12;;;;;;;16.57;52.15;100728.25;4455320;32;20138;-68
2022/05/01 06:14:55;;;;;;;8.00;5.00;;;;;;;16.61;50.72;100727.28;4455218;32;20504;-68
2022/05/01 06:17:22;;;;;;;7.12;4.90;;;;;;;16.57;50.61;100728.25;4454869;32;20100;-68
2022/05/01 06:19:50;;;;;;;6.80;4.50;;;;;;;16.82;50.77;100720.41;4455069;32;20176;-68
2022/05/01 06:22:17;;;;;;;11.50;4.93;;;;;;;16.90;51.31;100719.25;4454987;32;20100;-68
2022/05/01 06:24:44;;;;;;;9.70;4.97;;;;;;;16.93;50.14;100718.28;4455211;32;20085;-68
2022/05/01 06:27:11;;;;;;;6.93;4.82;;;;;;;17.09;50.55;100722.16;4455224;32;20140;-68
2022/05/01 06:29:39;;;;;;;6.70;5.05;;;;;;;17.31;50.58;100724.97;4455083;32;20101;-68
2022/05/01 06:32:07;;;;;;;10.13;5.03;;;;;;;17.45;49.59;100721.81;4455062;32;20189;-68
2022/05/01 06:34:36;;;;;;;5.00;4.53;;;;;;;17.48;49.49;100721.72;4454964;32;20184;-68
2022/05/01 06:37:04;;;;;;;6.97;4.80;;;;;;;17.57;48.91;100728.53;4454954;32;20660;-68
2022/05/01 06:39:32;;;;;;;6.57;4.93;;;;;;;17.85;47.63;100728.44;4454869;32;20486;-68
2022/05/01 06:42:00;;;;;;;6.75;4.72;;;;;;;18.08;48.01;100727.59;4455048;32;20179;-68
2022/05/01 06:44:27;;;;;;;9.50;4.80;;;;;;;18.14;47.31;100735.37;4454855;32;20085;-68
2022/05/01 06:46:54;;;;;;;8.18;5.20;;;;;;;18.34;46.75;100735.47;4454768;32;20132;-69
2022/05/01 06:49:22;;;;;;;7.15;4.97;;;;;;;18.40;47.35;100740.56;4454744;32;20123;-69
2022/05/01 06:51:49;;;;;;;11.32;5.47;;;;;;;18.45;47.08;100734.22;4454917;32;20116;-69
2022/05/01 06:54:16;;;;;;;7.62;5.43;;;;;;;18.64;46.83;100736.06;4454749;32;20136;-68
2022/05/01 06:56:44;;;;;;;6.32;4.97;;;;;;;18.42;46.10;100742.31;4454783;32;20575;-68
2022/05/01 06:59:11;;;;;;;7.22;5.43;;;;;;;18.45;47.64;100737.75;4454842;32;20568;-68
2022/05/01 07:01:38;;;;;;;7.53;5.87;;;;;;;18.53;47.46;100730.28;4454579;32;20114;-68
2022/05/01 07:04:06;;;;;;;6.90;5.12;;;;;;;18.53;47.09;100724.97;4454552;32;20152;-69
2022/05/01 07:06:33;;;;;;;9.45;5.45;;;;;;;18.66;46.84;100729.78;4454011;32;20151;-69
2022/05/01 07:09:00;;;;;;;9.20;4.87;;;;;;;18.82;46.18;100729.16;4454440;32;20463;-68
2022/05/01 07:11:27;;;;;;;10.32;4.55;;;;;;;18.91;46.49;100721.72;4454392;32;20080;-68
2022/05/01 07:13:54;;;;;;;6.43;4.75;;;;;;;19.00;46.58;100721.34;4439858;32;20511;-68
2022/05/01 07:16:22;;;;;;;7.87;4.65;;;;;;;18.89;47.14;100716.44;4454516;32;20104;-68
2022/05/01 07:18:50;;;;;;;5.43;4.37;;;;;;;19.13;47.50;100719.91;4454523;32;20097;-69
2022/05/01 07:21:17;;;;;;;4.22;2.90;;;;;;;19.15;47.39;100714.47;4454626;32;20089;-69
2022/05/01 07:23:45;;;;;;;7.68;3.62;;;;;;;19.27;46.67;100713.97;4439701;32;20127;-68
2022/05/01 07:26:12;;;;;;;5.45;3.62;;;;;;;19.29;47.01;100714.75;4454090;32;20550;-69
2022/05/01 07:28:39;;;;;;;3.08;2.87;;;;;;;19.23;47.04;100715.03;4454376;32;20539;-68
2022/05/01 07:31:06;;;;;;;3.12;2.83;;;;;;;18.90;47.30;100714.63;4454472;32;20568;-69
2022/05/01 07:33:34;;;;;;;3.28;2.97;;;;;;;18.93;47.39;100711.84;4454791;32;20196;-68
2022/05/01 07:36:01;;;;;;;2.90;2.70;;;;;;;19.13;46.43;100709.22;4454597;32;20113;-69
2022/05/01 07:38:28;;;;;;;6.40;3.37;;;;;;;19.18;46.88;100709.00;4454781;32;20105;-68
2022/05/01 07:40:56;;;;;;;3.92;2.67;;;;;;;18.90;46.41;100710.16;4454643;32;20135;-68
2022/05/01 07:43:23;;;;;;;4.57;2.35;;;;;;;18.93;47.26;100711.84;4454501;32;20155;-68
2022/05/01 07:45:50;;;;;;;4.80;2.70;;;;;;;18.96;46.88;100717.91;4440016;32;20752;-68
2022/05/01 07:48:17;;;;;;;5.60;3.08;;;;;;;18.71;45.50;100711.81;4454640;32;20097;-68
2022/05/01 07:50:44;;;;;;;2.80;2.53;;;;;;;18.74;46.46;100717.06;4454374;32;20145;-68
2022/05/01 07:53:11;;;;;;;2.35;2.25;;;;;;;18.94;46.09;100714.47;4454482;32;20123;-68
2022/05/01 07:55:39;;;;;;;3.33;2.67;;;;;;;18.98;45.24;100721.41;4453632;32;20168;-68
2022/05/01 07:58:06;;;;;;;2.75;2.55;;;;;;;18.85;46.39;100720.16;4454569;32;20131;-68
2022/05/01 08:00:33;;;;;;;2.75;2.42;;;;;;;18.86;45.61;100706.75;4454488;32;20085;-68
2022/05/01 08:05:46;;;;;;;6.00;2.80;;;;;;;19.53;44.87;100704.81;4454381;32;20100;-68
2022/05/01 08:08:14;;;;;;;14.60;2.70;;;;;;;19.74;44.73;100695.00;4454284;32;20165;-68
2022/05/01 08:10:41;;;;;;;4.62;2.33;;;;;;;19.89;44.21;100694.31;4454307;32;20085;-68
2022/05/01 08:13:08;;;;;;;2.20;2.10;;;;;;;20.06;43.49;100694.41;4454435;32;20139;-69
2022/05/01 08:15:35;;;;;;;2.97;2.45;;;;;;;19.78;42.48;100693.94;4454102;32;20127;-68
2022/05/01 08:23:36;;;;;;;2.55;2.35;;;;;;;19.98;42.82;100685.88;4454271;32;20447;-69
2022/05/01 08:26:10;;;;;;;5.07;2.60;;;;;;;20.12;43.50;100689.72;4454357;32;20123;-68
2022/05/01 08:28:39;;;;;;;2.50;2.20;;;;;;;20.33;43.37;100694.06;4454284;32;20081;-68
2022/05/01 08:31:08;;;;;;;3.42;2.42;;;;;;;20.42;42.61;100682.03;4454080;32;20163;-68
2022/05/01 08:33:36;;;;;;;10.02;2.62;;;;;;;20.48;42.15;100689.78;4454164;32;20123;-69
2022/05/01 08:36:06;;;;;;;2.60;2.30;;;;;;;20.59;43.04;100695.50;4454241;32;20097;-69
2022/05/01 08:38:37;;;;;;;4.00;2.17;;;;;;;20.28;43.58;100688.94;4454016;32;20157;-68
2022/05/01 08:41:05;;;;;;;2.70;2.15;;;;;;;20.59;41.60;100684.81;4453853;32;20456;-68
2022/05/01 08:43:34;;;;;;;4.20;2.17;;;;;;;20.71;41.64;100694.06;4454019;32;20104;-69
2022/05/01 08:46:36;;;;;;;2.60;2.22;;;;;;;20.71;42.13;100689.56;4454005;32;20582;-69
2022/05/01 08:49:06;;;;;;;2.67;2.10;;;;;;;20.79;41.66;100681.16;4454217;32;20096;-68
2022/05/01 08:51:43;;;;;;;3.10;2.90;;;;;;;20.96;40.37;100678.50;4453898;32;20487;-69
2022/05/01 08:54:12;;;;;;;5.70;2.42;;;;;;;21.08;40.89;100681.50;4454264;32;20157;-69
2022/05/01 08:56:41;;;;;;;2.45;2.25;;;;;;;20.74;41.39;100681.41;4453730;32;20093;-69
2022/05/01 08:59:10;;;;;;;3.62;2.50;;;;;;;20.97;40.71;100674.87;4453786;32;20430;-68
2022/05/01 09:01:40;;;;;;;5.85;2.40;;;;;;;21.16;41.67;100665.91;4453840;32;20152;-68
2022/05/01 09:04:12;;;;;;;3.70;2.42;;;;;;;21.10;39.88;100664.41;4453712;32;20093;-69
2022/05/01 09:06:41;;;;;;;4.97;2.40;;;;;;;20.98;39.18;100660.53;4453654;32;20100;-68
2022/05/01 09:09:30;;;;;;;2.20;2.10;;;;;;;21.11;40.17;100657.25;4455134;32;20089;-69
2022/05/01 09:14:43;;;;;;;3.15;2.05;;;;;;;21.83;39.54;100656.12;4454030;32;20152;-69
2022/05/01 09:17:19;;;;;;;6.37;2.08;;;;;;;22.02;38.95;100653.34;4453685;32;20104;-69
2022/05/01 09:19:53;;;;;;;2.50;2.03;;;;;;;22.28;38.16;100655.44;4454432;32;20123;-69
2022/05/01 09:22:22;;;;;;;3.62;1.95;;;;;;;22.28;38.75;100652.78;4454251;32;20414;-69
2022/05/01 09:24:53;;;;;;;8.00;1.92;;;;;;;22.32;37.05;100650.78;4455460;32;20108;-69
2022/05/01 09:27:32;;;;;;;2.17;1.98;;;;;;;22.46;37.78;100652.69;4455681;32;20760;-69
2022/05/01 09:30:08;;;;;;;4.22;2.03;;;;;;;22.96;38.38;100648.91;4455399;32;20135;-69
2022/05/01 09:32:41;;;;;;;2.40;1.83;;;;;;;23.05;35.45;100645.69;4455429;32;20162;-69
2022/05/01 09:35:26;;;;;;;2.55;2.17;;;;;;;23.06;37.31;100644.72;4455632;32;20179;-69
2022/05/01 09:38:15;;;;;;;1.90;1.80;;;;;;;23.47;36.19;100642.22;4455587;32;20100;-69
2022/05/01 09:40:48;;;;;;;2.00;1.90;;;;;;;23.62;36.51;100640.41;4455368;32;20227;-69
2022/05/01 09:43:34;;;;;;;2.45;1.77;;;;;;;23.92;35.58;100634.94;4455459;32;20151;-69
2022/05/01 09:46:24;;;;;;;1.73;1.62;;;;;;;23.97;33.27;100630.13;4455374;32;20129;-69
2022/05/01 09:49:03;;;;;;;3.17;2.22;;;;;;;24.16;31.96;100635.19;4455357;32;20267;-69
2022/05/01 09:51:32;;;;;;;4.57;1.87;;;;;;;24.04;31.26;100626.09;4455480;32;20131;-69
2022/05/01 09:54:16;;;;;;;2.25;1.80;;;;;;;24.08;31.79;100637.53;4455462;32;20134;-69
2022/05/01 09:56:49;;;;;;;3.40;2.20;;;;;;;24.09;32.92;100639.25;4455338;32;20409;-69
2022/05/01 09:59:20;;;;;;;2.28;1.98;;;;;;;24.23;32.37;100633.84;4455136;32;20219;-69
2022/05/01 10:01:55;;;;;;;2.08;1.98;;;;;;;24.30;31.99;100628.91;4455213;32;20089;-69
2022/05/01 10:04:24;;;;;;;5.93;1.92;;;;;;;24.64;32.63;100633.00;4455274;32;20507;-69
2022/05/01 10:06:53;;;;;;;6.37;2.25;;;;;;;24.86;31.94;100623.47;4455109;32;20157;-69
2022/05/01 10:09:23;;;;;;;2.70;1.73;;;;;;;25.22;29.01;100630.88;4455162;32;20109;-69
2022/05/01 10:11:56;;;;;;;1.90;1.80;;;;;;;25.28;28.63;100620.53;4455352;32;20115;-69
2022/05/01 10:14:26;;;;;;;3.50;1.95;;;;;;;24.97;30.40;100626.28;4455108;32;20085;-69
2022/05/01 10:16:55;;;;;;;17.50;1.90;;;;;;;24.87;30.68;100626.03;4454978;32;20749;-68
2022/05/01 10:19:23;;;;;;;8.88;1.70;;;;;;;24.61;30.73;100618.84;4440426;32;20109;-69
2022/05/01 10:21:52;;;;;;;2.22;2.10;;;;;;;24.59;31.02;100616.25;4455010;32;20168;-69
2022/05/01 10:24:21;;;;;;;2.10;1.90;;;;;;;24.24;30.97;100619.44;4455065;32;20484;-68
2022/05/01 10:26:51;;;;;;;2.83;1.90;;;;;;;23.85;31.39;100620.13;4455035;32;20123;-69
2022/05/01 10:29:34;;;;;;;2.33;1.95;;;;;;;23.44;32.71;100626.25;4455077;32;20154;-69
2022/05/01 10:35:16;;;;;;;10.48;2.10;;;;;;;24.20;31.88;100615.19;4455301;32;20557;-69
2022/05/01 10:38:09;;;;;;;3.17;2.20;;;;;;;24.90;31.18;100608.81;4455225;32;20496;-69
2022/05/01 10:40:45;;;;;;;4.30;2.10;;;;;;;25.16;31.64;100601.62;4455113;32;20518;-69
2022/05/01 10:43:38;;;;;;;5.05;1.95;;;;;;;24.80;32.69;100597.78;4455093;32;20434;-69
2022/05/01 10:46:17;;;;;;;3.78;2.50;;;;;;;25.22;32.49;100599.37;4455129;32;20077;-69
2022/05/01 10:48:44;;;;;;;3.40;2.47;;;;;;;24.99;31.41;100586.63;4454904;32;20089;-68
2022/05/01 10:51:30;;;;;;;2.83;2.35;;;;;;;25.17;33.09;100595.31;4454806;32;20123;-68
2022/05/01 10:54:33;;;;;;;2.87;2.27;;;;;;;25.43;31.15;100596.16;4454881;32;20097;-68
2022/05/01 10:57:11;;;;;;;4.45;2.30;;;;;;;26.02;30.25;100596.44;4433737;32;20093;-69
2022/05/01 10:59:43;;;;;;;2.58;2.37;;;;;;;26.73;30.15;100594.78;4454978;32;20073;-69
2022/05/01 11:02:22;;;;;;;3.33;2.67;;;;;;;27.15;27.59;100582.50;4454635;32;20092;-69
2022/05/01 11:04:52;;;;;;;5.03;2.30;;;;;;;26.88;29.16;100592.72;4454890;32;20421;-69
2022/05/01 11:07:21;;;;;;;2.78;2.10;;;;;;;27.11;27.80;100585.56;4454869;32;20506;-69
2022/05/01 11:09:49;;;;;;;3.53;2.42;;;;;;;26.98;27.34;100588.34;4454891;32;20490;-69
2022/05/01 11:12:20;;;;;;;4.45;2.50;;;;;;;26.76;27.77;100582.87;4454533;32;20101;-69
2022/05/01 11:15:01;;;;;;;4.62;2.45;;;;;;;26.72;27.95;100571.44;4454764;32;20093;-69
2022/05/01 11:17:39;;;;;;;4.75;2.28;;;;;;;28.38;26.98;100569.97;4454532;32;20199;-69
2022/05/01 11:20:26;;;;;;;2.62;2.42;;;;;;;29.71;23.34;100569.31;4454816;32;20073;-69
2022/05/01 11:22:54;;;;;;;3.70;2.08;;;;;;;29.46;23.22;100567.03;4454750;32;20448;-69
2022/05/01 11:25:36;;;;;;;4.50;2.20;;;;;;;30.35;22.86;100567.22;4454671;32;20435;-69
2022/05/01 11:28:05;;;;;;;7.60;2.40;;;;;;;31.18;21.86;100558.47;4454939;32;20239;-69
2022/05/01 11:30:32;;;;;;;5.95;2.30;;;;;;;31.54;20.65;100549.63;4453745;32;20444;-69
2022/05/01 11:33:00;;;;;;;4.82;2.53;;;;;;;30.15;21.70;100553.56;4454665;32;20492;-69
2022/05/01 11:36:00;;;;;;;4.62;3.08;;;;;;;29.11;22.53;100542.97;4454462;32;20109;-69
2022/05/01 11:38:39;;;;;;;4.28;3.08;;;;;;;28.93;24.01;100537.28;4454672;32;20144;-69
2022/05/01 11:41:07;;;;;;;4.37;2.22;;;;;;;29.11;23.62;100548.41;4454687;32;20108;-69
2022/05/01 11:43:35;;;;;;;2.28;2.17;;;;;;;29.06;24.60;100552.37;4454497;32;20093;-69
2022/05/01 11:46:04;;;;;;;3.28;2.40;;;;;;;28.60;24.55;100547.31;4454660;32;20148;-69
2022/05/01 11:48:32;;;;;;;7.87;2.50;;;;;;;28.02;25.25;100539.47;4454806;32;20081;-69
2022/05/01 11:50:59;;;;;;;6.72;3.15;;;;;;;27.69;24.99;100534.94;4454667;32;20425;-69
2022/05/01 11:53:28;;;;;;;3.03;2.83;;;;;;;27.18;26.73;100535.44;4454734;32;20158;-69
2022/05/01 12:04:32;;;;;;;4.82;2.47;;;;;;;29.45;23.98;100532.75;4454667;32;20437;-69
2022/05/01 12:07:09;;;;;;;4.32;2.28;;;;;;;29.99;22.37;100526.94;4454747;32;20513;-69
2022/05/01 12:09:38;;;;;;;5.18;2.55;;;;;;;31.39;21.07;100527.47;4454725;32;20420;-69
2022/05/01 12:12:11;;;;;;;6.87;2.62;;;;;;;30.49;23.52;100524.13;4451102;32;106858;-69
2022/05/01 12:14:40;;;;;;;4.80;3.03;;;;;;;31.42;22.29;100510.84;4454539;32;20153;-69
2022/05/01 12:17:16;;;;;;;2.40;2.20;;;;;;;33.59;20.46;100515.06;4454418;32;20482;-69